Time;durP1;ratioP1;P1;durP2;ratioP2;P2;SDS_P1;SDS_P2;PMS_P1;PMS_P2;Temp;Humidity;BMP_temperature;BMP_pressure;BME280_temperature;BME280_humidity;BME280_pressure;Samples;Min_cycle;Max_cycle;Signal;HPM_P1;HPM_P2
2023/01/26 00:01:52;;;;;;;94.15;24.85;;;;;;;;;;5074233;28;20228;-69
2023/01/26 00:04:19;;;;;;;90.38;21.80;;;;;;;;;;5073985;28;20716;-69
2023/01/26 00:06:47;;;;;;;94.05;22.75;;;;;;;;;;5074086;28;20695;-70
2023/01/26 00:09:14;;;;;;;92.45;23.67;;;;;;;;;;5073222;28;20208;-68
2023/01/26 00:11:41;;;;;;;92.03;21.80;;;;;;;;;;5073880;28;20200;-69
2023/01/26 00:14:08;;;;;;;100.25;22.90;;;;;;;;;;5073933;28;20222;-69
2023/01/26 00:16:37;;;;;;;92.57;22.02;;;;;;;;;;5073794;28;20694;-69
2023/01/26 00:19:04;;;;;;;92.53;19.80;;;;;;;;;;5073154;28;20214;-69
2023/01/26 00:21:31;;;;;;;91.00;21.95;;;;;;;;;;5073809;28;20228;-70
2023/01/26 00:23:59;;;;;;;92.38;22.65;;;;;;;;;;5073816;28;20235;-69
2023/01/26 00:26:27;;;;;;;92.93;21.25;;;;;;;;;;5073662;28;20509;-69
2023/01/26 00:28:54;;;;;;;89.97;21.00;;;;;;;;;;5072519;28;20215;-69
2023/01/26 00:31:22;;;;;;;91.95;21.63;;;;;;;;;;5073679;28;20666;-69
2023/01/26 00:33:51;;;;;;;88.55;20.83;;;;;;;;;;5073577;28;20624;-70
2023/01/26 00:36:18;;;;;;;93.43;19.42;;;;;;;;;;5073498;28;20209;-70
2023/01/26 00:38:45;;;;;;;91.60;20.08;;;;;;;;;;5072674;28;20211;-69
2023/01/26 00:42:05;;;;;;;86.50;19.33;;;;;;;;;;5073322;28;20230;-68
2023/01/26 00:44:00;;;;;;;93.97;21.27;;;;;;;;;;5073009;28;20768;-70
2023/01/26 00:46:27;;;;;;;85.70;20.85;;;;;;;;;;5073337;28;20215;-69
2023/01/26 00:48:55;;;;;;;88.93;19.27;;;;;;;;;;5072541;28;20216;-69
2023/01/26 00:51:23;;;;;;;98.07;22.98;;;;;;;;;;5073100;28;20200;-69
2023/01/26 00:53:50;;;;;;;93.82;22.00;;;;;;;;;;5072915;28;20234;-70
2023/01/26 00:56:17;;;;;;;93.28;22.30;;;;;;;;;;5073181;28;20206;-69
2023/01/26 00:58:44;;;;;;;89.72;20.73;;;;;;;;;;5072598;28;20563;-69
2023/01/26 01:01:11;;;;;;;94.03;21.75;;;;;;;;;;5072906;28;20237;-69
2023/01/26 01:03:38;;;;;;;89.75;21.48;;;;;;;;;;5072884;28;20226;-69
2023/01/26 01:06:07;;;;;;;94.10;20.17;;;;;;;;;;5073025;28;20202;-69
2023/01/26 01:08:34;;;;;;;92.30;21.45;;;;;;;;;;5072226;28;20688;-70
2023/01/26 01:11:05;;;;;;;89.45;21.50;;;;;;;;;;5072850;28;20204;-69
2023/01/26 01:13:32;;;;;;;83.28;19.95;;;;;;;;;;5072632;28;20232;-69
2023/01/26 01:15:59;;;;;;;86.97;20.95;;;;;;;;;;5072779;28;20218;-69
2023/01/26 01:18:27;;;;;;;93.25;21.35;;;;;;;;;;5072652;28;20206;-69
2023/01/26 01:20:54;;;;;;;93.88;22.27;;;;;;;;;;5072197;28;20203;-68
2023/01/26 01:23:22;;;;;;;91.65;20.83;;;;;;;;;;5072578;28;20227;-70
2023/01/26 01:25:57;;;;;;;93.40;22.17;;;;;;;;;;5072646;28;20206;-69
2023/01/26 01:28:24;;;;;;;93.65;21.38;;;;;;;;;;5072302;28;20201;-69
2023/01/26 01:30:51;;;;;;;92.43;20.10;;;;;;;;;;5071656;28;20668;-69
2023/01/26 01:33:18;;;;;;;85.72;19.17;;;;;;;;;;5072137;28;20234;-69
2023/01/26 01:35:56;;;;;;;84.80;17.10;;;;;;;;;;5072545;28;20213;-69
2023/01/26 01:38:24;;;;;;;85.95;18.65;;;;;;;;;;5072335;28;20200;-69
2023/01/26 01:40:51;;;;;;;82.65;16.95;;;;;;;;;;5070965;28;20226;-69
2023/01/26 01:43:18;;;;;;;82.60;17.63;;;;;;;;;;5072093;28;20222;-69
2023/01/26 01:45:46;;;;;;;84.50;18.73;;;;;;;;;;5072081;28;20589;-69
2023/01/26 01:48:21;;;;;;;85.78;17.77;;;;;;;;;;5072359;28;20226;-70
2023/01/26 01:50:48;;;;;;;82.97;16.85;;;;;;;;;;5071554;28;20233;-69
2023/01/26 01:53:23;;;;;;;83.53;16.42;;;;;;;;;;5072019;28;20229;-69
2023/01/26 01:55:51;;;;;;;86.95;19.48;;;;;;;;;;5072071;28;20296;-70
2023/01/26 01:58:19;;;;;;;87.85;18.63;;;;;;;;;;5071771;28;20210;-68
2023/01/26 02:00:46;;;;;;;85.28;16.27;;;;;;;;;;5071597;28;20203;-69
2023/01/26 02:03:15;;;;;;;85.30;17.00;;;;;;;;;;5071879;28;20230;-69
2023/01/26 02:05:49;;;;;;;87.57;18.45;;;;;;;;;;5071915;28;20208;-69
2023/01/26 02:08:17;;;;;;;82.35;18.25;;;;;;;;;;5071966;28;20628;-69
2023/01/26 02:10:46;;;;;;;81.85;16.10;;;;;;;;;;5071088;28;20208;-69
2023/01/26 02:13:16;;;;;;;86.07;18.02;;;;;;;;;;5071869;28;20219;-69
2023/01/26 02:15:43;;;;;;;86.78;19.08;;;;;;;;;;5071940;28;20218;-69
2023/01/26 02:18:11;;;;;;;85.78;18.40;;;;;;;;;;5071742;28;20212;-69
2023/01/26 02:20:42;;;;;;;82.07;19.13;;;;;;;;;;5071253;28;20210;-69
2023/01/26 02:23:15;;;;;;;83.82;16.05;;;;;;;;;;5071478;28;20738;-69
2023/01/26 02:25:45;;;;;;;82.50;16.40;;;;;;;;;;5071635;28;20217;-68
2023/01/26 02:28:13;;;;;;;85.05;17.70;;;;;;;;;;5071541;28;20682;-68
2023/01/26 02:30:40;;;;;;;80.47;16.38;;;;;;;;;;5070948;28;20219;-68
2023/01/26 02:33:08;;;;;;;85.65;17.40;;;;;;;;;;5071721;28;20303;-69
2023/01/26 02:35:35;;;;;;;79.38;17.20;;;;;;;;;;5071449;28;20210;-69
2023/01/26 02:38:02;;;;;;;82.22;16.65;;;;;;;;;;5071673;28;20224;-68
2023/01/26 02:40:33;;;;;;;87.72;18.33;;;;;;;;;;5071182;28;20214;-69
2023/01/26 02:42:59;;;;;;;85.80;17.45;;;;;;;;;;5067678;28;20242;-69
2023/01/26 02:45:28;;;;;;;87.05;18.15;;;;;;;;;;5071427;28;20246;-68
2023/01/26 02:47:56;;;;;;;82.57;16.92;;;;;;;;;;5071540;28;20214;-68
2023/01/26 02:50:23;;;;;;;85.30;17.75;;;;;;;;;;5070658;28;20206;-69
2023/01/26 02:52:50;;;;;;;83.70;17.63;;;;;;;;;;5074056;28;20606;-69
2023/01/26 02:55:23;;;;;;;81.57;17.35;;;;;;;;;;5075784;28;20212;-69
2023/01/26 02:57:51;;;;;;;86.18;17.70;;;;;;;;;;5075336;28;20621;-69
2023/01/26 03:00:19;;;;;;;82.05;16.92;;;;;;;;;;5074393;28;20217;-69
2023/01/26 03:02:47;;;;;;;80.40;16.20;;;;;;;;;;5075305;28;20237;-70
2023/01/26 03:05:15;;;;;;;87.50;17.98;;;;;;;;;;5075239;28;20210;-68
2023/01/26 03:07:42;;;;;;;81.97;16.58;;;;;;;;;;5075083;28;20211;-69
2023/01/26 03:10:09;;;;;;;79.10;16.23;;;;;;;;;;5074265;28;20211;-68
2023/01/26 03:12:36;;;;;;;82.28;15.32;;;;;;;;;;5074935;28;20234;-69
2023/01/26 03:17:50;;;;;;;84.97;16.10;;;;;;;;;;5075052;28;20675;-68
2023/01/26 03:28:32;;;;;;;86.78;18.52;;;;;;;;;;5074276;28;20248;-69
2023/01/26 03:30:59;;;;;;;80.90;16.55;;;;;;;;;;5074732;28;20643;-69
2023/01/26 03:33:27;;;;;;;82.15;17.33;;;;;;;;;;5074465;28;20229;-69
2023/01/26 03:35:55;;;;;;;82.50;17.33;;;;;;;;;;5074605;28;20212;-69
2023/01/26 03:38:22;;;;;;;86.57;17.67;;;;;;;;;;5074564;28;20203;-69
2023/01/26 03:57:18;;;;;;;83.05;17.13;;;;;;;;;;5074329;28;20625;-69
2023/01/26 03:59:45;;;;;;;79.20;16.50;;;;;;;;;;5073656;28;20206;-69
2023/01/26 04:10:28;;;;;;;86.38;17.15;;;;;;;;;;5073369;28;20666;-70
2023/01/26 04:21:32;;;;;;;87.07;16.65;;;;;;;;;;5073845;28;20226;-70
2023/01/26 04:23:59;;;;;;;81.85;15.68;;;;;;;;;;5073695;28;20271;-69
2023/01/26 04:26:33;;;;;;;79.80;15.57;;;;;;;;;;5073869;28;20208;-69
2023/01/26 04:29:00;;;;;;;84.95;16.77;;;;;;;;;;5073014;28;20214;-69
2023/01/26 04:31:27;;;;;;;84.53;17.98;;;;;;;;;;5073695;28;20587;-69
2023/01/26 04:33:55;;;;;;;81.05;16.63;;;;;;;;;;5073432;28;20228;-70
2023/01/26 04:36:23;;;;;;;80.95;17.00;;;;;;;;;;5073685;28;20231;-69
2023/01/26 04:38:50;;;;;;;81.20;16.50;;;;;;;;;;5072614;28;20290;-69
2023/01/26 04:41:18;;;;;;;79.40;16.02;;;;;;;;;;5073471;28;20205;-69
2023/01/26 04:43:45;;;;;;;80.07;16.92;;;;;;;;;;5073190;28;20237;-70
2023/01/26 04:46:12;;;;;;;84.43;17.77;;;;;;;;;;5073277;28;20206;-69
2023/01/26 04:48:39;;;;;;;83.97;16.35;;;;;;;;;;5072465;28;20402;-70
2023/01/26 04:51:07;;;;;;;84.38;18.95;;;;;;;;;;5073204;28;20676;-69
2023/01/26 04:53:36;;;;;;;86.95;17.95;;;;;;;;;;5073056;28;20311;-69
2023/01/26 04:56:03;;;;;;;80.93;17.20;;;;;;;;;;5073135;28;20219;-69
2023/01/26 04:58:30;;;;;;;86.20;18.98;;;;;;;;;;5072975;28;20209;-69
2023/01/26 05:00:58;;;;;;;84.43;17.77;;;;;;;;;;5072659;28;20202;-70
2023/01/26 05:03:26;;;;;;;84.38;17.20;;;;;;;;;;5073211;28;20336;-70
2023/01/26 05:05:54;;;;;;;83.00;16.75;;;;;;;;;;5073196;28;20587;-69
2023/01/26 05:08:24;;;;;;;82.20;16.65;;;;;;;;;;5072984;28;20221;-70
2023/01/26 05:10:52;;;;;;;81.68;16.63;;;;;;;;;;5072245;28;20229;-69
2023/01/26 05:13:19;;;;;;;90.82;19.65;;;;;;;;;;5072648;28;20664;-69
2023/01/26 05:15:47;;;;;;;81.60;15.50;;;;;;;;;;5072172;28;20201;-70
2023/01/26 05:18:14;;;;;;;87.80;18.55;;;;;;;;;;5072539;28;20251;-69
2023/01/26 05:20:41;;;;;;;79.15;15.98;;;;;;;;;;5072035;28;20235;-69
2023/01/26 05:23:09;;;;;;;80.45;16.42;;;;;;;;;;5072450;28;20251;-69
2023/01/26 05:25:36;;;;;;;80.32;16.75;;;;;;;;;;5072894;28;20210;-69
2023/01/26 05:28:04;;;;;;;91.10;18.63;;;;;;;;;;5072362;28;20214;-69
2023/01/26 05:30:32;;;;;;;80.93;16.13;;;;;;;;;;5071789;28;20216;-70
2023/01/26 05:33:02;;;;;;;81.57;15.63;;;;;;;;;;5072484;28;20225;-69
2023/01/26 05:35:29;;;;;;;84.10;15.48;;;;;;;;;;5072553;28;20207;-69
2023/01/26 05:37:56;;;;;;;86.47;17.27;;;;;;;;;;5072270;28;20225;-69
2023/01/26 05:40:24;;;;;;;89.82;18.95;;;;;;;;;;5071546;28;20212;-68
2023/01/26 05:42:52;;;;;;;84.70;18.40;;;;;;;;;;5072361;28;20594;-69
2023/01/26 05:45:21;;;;;;;86.88;18.08;;;;;;;;;;5072312;28;20215;-69
2023/01/26 05:47:48;;;;;;;86.20;18.92;;;;;;;;;;5072185;28;20678;-70
2023/01/26 05:50:15;;;;;;;84.90;17.70;;;;;;;;;;5071434;28;20203;-69
2023/01/26 05:52:42;;;;;;;80.18;17.80;;;;;;;;;;5071910;28;20229;-69
2023/01/26 05:55:10;;;;;;;81.03;16.13;;;;;;;;;;5071938;28;20209;-69
2023/01/26 05:57:37;;;;;;;83.03;16.67;;;;;;;;;;5072334;28;20209;-69
2023/01/26 06:00:04;;;;;;;84.53;17.38;;;;;;;;;;5071431;28;20209;-69
2023/01/26 06:02:33;;;;;;;81.05;15.43;;;;;;;;;;5071821;28;20229;-69
2023/01/26 06:05:00;;;;;;;80.28;16.42;;;;;;;;;;5071944;28;20208;-69
2023/01/26 06:07:27;;;;;;;81.38;17.77;;;;;;;;;;5071866;28;20214;-69
2023/01/26 06:09:54;;;;;;;86.13;18.70;;;;;;;;;;5071485;28;20572;-69
2023/01/26 06:12:23;;;;;;;86.82;17.55;;;;;;;;;;5072096;28;20473;-69
2023/01/26 06:14:50;;;;;;;85.68;17.20;;;;;;;;;;5071925;28;20210;-69
2023/01/26 06:17:18;;;;;;;85.65;18.33;;;;;;;;;;5071939;28;20206;-69
2023/01/26 06:19:46;;;;;;;82.30;16.73;;;;;;;;;;5070983;28;20206;-70
2023/01/26 06:22:14;;;;;;;90.07;18.60;;;;;;;;;;5071582;28;20212;-68
2023/01/26 06:24:41;;;;;;;80.80;16.63;;;;;;;;;;5072060;28;20224;-69
2023/01/26 06:27:12;;;;;;;81.50;16.67;;;;;;;;;;5071549;28;20208;-69
2023/01/26 06:29:40;;;;;;;81.55;15.13;;;;;;;;;;5070963;28;20210;-69
2023/01/26 06:32:07;;;;;;;84.93;17.00;;;;;;;;;;5071728;28;20205;-69
2023/01/26 06:34:34;;;;;;;86.78;19.08;;;;;;;;;;5071399;28;20225;-68
2023/01/26 06:37:03;;;;;;;83.35;17.30;;;;;;;;;;5071508;28;20213;-69
2023/01/26 06:39:30;;;;;;;83.85;18.05;;;;;;;;;;5070968;28;20207;-69
2023/01/26 06:41:57;;;;;;;87.85;19.27;;;;;;;;;;5071712;28;20213;-69
2023/01/26 06:44:24;;;;;;;83.97;19.25;;;;;;;;;;5071452;28;20233;-69
2023/01/26 06:46:51;;;;;;;84.93;19.70;;;;;;;;;;5071632;28;20206;-69
2023/01/26 06:49:18;;;;;;;84.60;18.40;;;;;;;;;;5070654;28;20676;-70
2023/01/26 06:51:47;;;;;;;81.38;16.45;;;;;;;;;;5071520;28;20203;-69
2023/01/26 06:54:16;;;;;;;84.03;18.35;;;;;;;;;;5071517;28;20316;-69
2023/01/26 06:56:43;;;;;;;85.63;18.00;;;;;;;;;;5071475;28;20205;-69
2023/01/26 06:59:10;;;;;;;86.03;16.75;;;;;;;;;;5070760;28;20205;-70
2023/01/26 07:01:39;;;;;;;87.00;17.48;;;;;;;;;;5071341;28;20220;-69
2023/01/26 07:04:06;;;;;;;81.90;16.95;;;;;;;;;;5071539;28;20237;-69
2023/01/26 07:06:33;;;;;;;82.60;18.85;;;;;;;;;;5071485;28;20232;-68
2023/01/26 07:09:00;;;;;;;86.22;17.33;;;;;;;;;;5070661;28;20210;-69
2023/01/26 07:11:31;;;;;;;84.43;18.25;;;;;;;;;;5071223;28;20215;-69
2023/01/26 07:13:58;;;;;;;84.35;18.55;;;;;;;;;;5071235;28;20237;-69
2023/01/26 07:16:25;;;;;;;85.40;16.63;;;;;;;;;;5071086;28;20214;-68
2023/01/26 07:18:54;;;;;;;86.45;18.83;;;;;;;;;;5070678;28;20215;-69
2023/01/26 07:21:21;;;;;;;84.28;16.92;;;;;;;;;;5071520;28;20212;-68
2023/01/26 07:23:49;;;;;;;83.70;16.45;;;;;;;;;;5070992;28;20728;-69
2023/01/26 07:26:16;;;;;;;85.85;17.90;;;;;;;;;;5071130;28;20677;-69
2023/01/26 07:28:45;;;;;;;84.50;19.33;;;;;;;;;;5070286;28;20626;-69
2023/01/26 07:31:12;;;;;;;84.25;18.80;;;;;;;;;;5071431;28;20211;-68
2023/01/26 07:33:39;;;;;;;89.00;19.23;;;;;;;;;;5071180;28;20218;-69
2023/01/26 07:36:06;;;;;;;92.28;20.00;;;;;;;;;;5071209;28;20205;-69
2023/01/26 07:38:34;;;;;;;88.07;18.95;;;;;;;;;;5072464;28;20201;-67
2023/01/26 07:41:05;;;;;;;85.38;17.83;;;;;;;;;;5074589;28;20211;-69
2023/01/26 07:43:33;;;;;;;88.03;19.05;;;;;;;;;;5074388;28;20225;-69
2023/01/26 07:46:01;;;;;;;85.97;17.90;;;;;;;;;;5074650;28;20213;-69
2023/01/26 07:48:29;;;;;;;85.80;19.33;;;;;;;;;;5074225;28;20215;-69
2023/01/26 07:50:59;;;;;;;88.22;20.20;;;;;;;;;;5073826;28;20303;-69
2023/01/26 07:53:28;;;;;;;87.65;18.30;;;;;;;;;;5074262;28;20271;-70
2023/01/26 07:55:55;;;;;;;90.05;19.63;;;;;;;;;;5074173;28;20212;-69
2023/01/26 07:58:22;;;;;;;84.75;17.70;;;;;;;;;;5074119;28;20210;-70
2023/01/26 08:00:49;;;;;;;89.50;19.55;;;;;;;;;;5073806;28;20210;-70
2023/01/26 08:03:17;;;;;;;84.45;18.88;;;;;;;;;;5074160;28;20231;-69
2023/01/26 08:05:46;;;;;;;83.03;18.00;;;;;;;;;;5074245;28;20723;-68
2023/01/26 08:08:13;;;;;;;86.10;19.50;;;;;;;;;;5073898;28;20304;-69
2023/01/26 08:10:40;;;;;;;84.07;18.35;;;;;;;;;;5073289;28;20205;-69
2023/01/26 08:13:07;;;;;;;82.03;18.20;;;;;;;;;;5074087;28;20228;-68
2023/01/26 08:15:34;;;;;;;91.68;19.23;;;;;;;;;;5073895;28;20212;-69
2023/01/26 08:18:02;;;;;;;87.85;18.77;;;;;;;;;;5073772;28;20209;-69
2023/01/26 08:20:31;;;;;;;80.82;18.45;;;;;;;;;;5073175;28;20570;-69
2023/01/26 08:22:58;;;;;;;82.40;17.38;;;;;;;;;;5073535;28;20721;-71
2023/01/26 08:25:25;;;;;;;82.88;18.67;;;;;;;;;;5073924;28;20233;-69
2023/01/26 08:27:54;;;;;;;82.45;16.70;;;;;;;;;;5073463;28;20216;-70
2023/01/26 08:30:21;;;;;;;83.55;16.20;;;;;;;;;;5072954;28;20829;-70
2023/01/26 08:32:49;;;;;;;82.47;16.98;;;;;;;;;;5073553;28;20228;-70
2023/01/26 08:35:16;;;;;;;87.18;16.88;;;;;;;;;;5073666;28;20213;-70
2023/01/26 08:37:44;;;;;;;86.50;17.48;;;;;;;;;;5073444;28;20217;-70
2023/01/26 08:40:12;;;;;;;83.30;18.05;;;;;;;;;;5073052;28;20202;-69
2023/01/26 08:42:39;;;;;;;83.07;17.10;;;;;;;;;;5073520;28;20233;-70
2023/01/26 08:45:06;;;;;;;82.20;18.48;;;;;;;;;;5073687;28;20227;-70
2023/01/26 08:47:33;;;;;;;86.30;17.48;;;;;;;;;;5073204;28;20214;-70
2023/01/26 08:50:00;;;;;;;90.78;16.83;;;;;;;;;;5072475;28;20579;-69
2023/01/26 08:52:28;;;;;;;83.38;14.85;;;;;;;;;;5073010;28;20230;-69
2023/01/26 08:54:56;;;;;;;80.35;15.90;;;;;;;;;;5073278;28;20206;-70
2023/01/26 08:57:23;;;;;;;81.68;15.48;;;;;;;;;;5073292;28;20208;-70
2023/01/26 08:59:50;;;;;;;76.72;14.60;;;;;;;;;;5072371;28;20230;-70
2023/01/26 09:02:17;;;;;;;78.45;14.35;;;;;;;;;;5073174;28;20210;-70
2023/01/26 09:04:44;;;;;;;81.22;14.50;;;;;;;;;;5072919;28;20227;-70
2023/01/26 09:07:11;;;;;;;77.75;13.88;;;;;;;;;;5073126;28;20583;-70
2023/01/26 09:09:39;;;;;;;74.50;13.98;;;;;;;;;;5072335;28;20201;-70
2023/01/26 09:12:07;;;;;;;79.80;14.85;;;;;;;;;;5072961;28;20210;-70
2023/01/26 09:14:34;;;;;;;78.00;14.23;;;;;;;;;;5073073;28;20222;-70
2023/01/26 09:17:01;;;;;;;72.78;13.05;;;;;;;;;;5072833;28;20225;-70
2023/01/26 09:19:28;;;;;;;78.75;14.68;;;;;;;;;;5071865;28;20218;-69
2023/01/26 09:21:56;;;;;;;77.18;13.98;;;;;;;;;;5072845;28;20212;-70
2023/01/26 09:24:23;;;;;;;75.97;13.68;;;;;;;;;;5072397;28;20275;-70
2023/01/26 09:26:50;;;;;;;73.05;11.30;;;;;;;;;;5072610;28;20684;-70
2023/01/26 09:29:19;;;;;;;69.93;12.02;;;;;;;;;;5072080;28;20294;-70
2023/01/26 09:31:46;;;;;;;70.38;11.93;;;;;;;;;;5072353;28;20203;-70
2023/01/26 09:34:13;;;;;;;71.18;11.27;;;;;;;;;;5072638;28;20233;-70
2023/01/26 09:36:40;;;;;;;77.32;11.75;;;;;;;;;;5072984;28;20680;-71
2023/01/26 09:39:07;;;;;;;71.15;11.70;;;;;;;;;;5072301;28;20209;-70
2023/01/26 09:41:41;;;;;;;70.80;11.98;;;;;;;;;;5073114;28;20306;-70
2023/01/26 09:44:09;;;;;;;74.15;12.05;;;;;;;;;;5073477;28;20229;-70
2023/01/26 09:46:44;;;;;;;75.25;12.73;;;;;;;;;;5072926;28;20212;-70
2023/01/26 09:49:14;;;;;;;73.03;13.20;;;;;;;;;;5072281;28;20206;-70
2023/01/26 09:51:43;;;;;;;80.05;13.23;;;;;;;;;;5072895;28;20698;-69
2023/01/26 09:54:16;;;;;;;75.65;13.63;;;;;;;;;;5072784;28;20245;-69
2023/01/26 09:56:43;;;;;;;77.15;13.40;;;;;;;;;;5072966;28;20217;-73
2023/01/26 09:59:17;;;;;;;80.30;15.18;;;;;;;;;;5067002;28;20434;-70
2023/01/26 10:01:52;;;;;;;76.03;13.02;;;;;;;;;;5063216;28;20199;-70
2023/01/26 10:04:22;;;;;;;77.85;13.45;;;;;;;;;;5072477;28;20233;-70
2023/01/26 10:06:49;;;;;;;75.20;14.65;;;;;;;;;;5072858;28;20210;-70
2023/01/26 10:09:17;;;;;;;77.68;13.73;;;;;;;;;;5071759;28;20204;-70
2023/01/26 10:11:47;;;;;;;76.03;14.23;;;;;;;;;;5072715;28;20207;-70
2023/01/26 10:14:15;;;;;;;73.63;13.20;;;;;;;;;;5071949;28;20226;-70
2023/01/26 10:16:44;;;;;;;76.03;14.10;;;;;;;;;;5072142;28;20210;-69
2023/01/26 10:19:14;;;;;;;75.90;13.73;;;;;;;;;;5071285;28;20207;-70
2023/01/26 10:21:44;;;;;;;77.85;13.98;;;;;;;;;;5071824;28;20586;-70
2023/01/26 10:24:12;;;;;;;78.30;13.70;;;;;;;;;;5072253;28;20227;-71
2023/01/26 10:26:39;;;;;;;76.43;14.98;;;;;;;;;;5071908;28;20578;-70
2023/01/26 10:29:06;;;;;;;75.63;13.50;;;;;;;;;;5071116;28;20202;-69
2023/01/26 10:31:34;;;;;;;75.32;13.73;;;;;;;;;;5071514;28;20209;-70
2023/01/26 10:34:03;;;;;;;76.65;13.95;;;;;;;;;;5071591;28;20222;-70
2023/01/26 10:36:32;;;;;;;75.70;14.77;;;;;;;;;;5071502;28;20206;-70
2023/01/26 10:39:05;;;;;;;73.90;13.88;;;;;;;;;;5070944;28;20229;-70
2023/01/26 10:41:32;;;;;;;77.90;14.85;;;;;;;;;;5071758;28;20215;-70
2023/01/26 10:44:01;;;;;;;77.70;14.63;;;;;;;;;;5071502;28;20710;-70
2023/01/26 10:46:29;;;;;;;74.45;12.75;;;;;;;;;;5071536;28;20202;-70
2023/01/26 10:48:58;;;;;;;76.70;12.25;;;;;;;;;;5070659;28;20208;-70
2023/01/26 10:51:26;;;;;;;73.28;12.15;;;;;;;;;;5071673;28;20201;-70
2023/01/26 10:54:08;;;;;;;72.28;12.27;;;;;;;;;;5071528;28;20237;-70
2023/01/26 10:56:37;;;;;;;73.07;13.50;;;;;;;;;;5071515;28;20211;-70
2023/01/26 10:59:08;;;;;;;75.40;12.65;;;;;;;;;;5070573;28;20257;-70
2023/01/26 11:01:51;;;;;;;69.32;12.07;;;;;;;;;;5071499;28;20210;-70
2023/01/26 11:04:18;;;;;;;72.53;12.77;;;;;;;;;;5071355;28;20231;-70
2023/01/26 11:06:46;;;;;;;75.72;12.55;;;;;;;;;;5071438;28;20230;-70
2023/01/26 11:09:18;;;;;;;77.22;15.68;;;;;;;;;;5070628;28;20213;-70
2023/01/26 11:11:57;;;;;;;72.75;12.00;;;;;;;;;;5071158;28;20258;-69
2023/01/26 11:14:24;;;;;;;76.10;13.05;;;;;;;;;;5074708;28;20324;-70
2023/01/26 11:16:53;;;;;;;73.97;11.60;;;;;;;;;;5075206;28;20296;-70
2023/01/26 11:19:27;;;;;;;74.20;12.55;;;;;;;;;;5074316;28;20207;-70
2023/01/26 11:21:57;;;;;;;76.32;13.73;;;;;;;;;;5074964;28;20206;-70
2023/01/26 11:24:26;;;;;;;71.07;11.80;;;;;;;;;;5074521;28;20237;-70
2023/01/26 11:27:20;;;;;;;74.72;12.68;;;;;;;;;;5074953;28;20284;-70
2023/01/26 11:29:54;;;;;;;76.47;12.30;;;;;;;;;;5074075;28;20218;-70
2023/01/26 11:32:26;;;;;;;70.78;11.57;;;;;;;;;;5074743;28;20212;-70
2023/01/26 11:34:59;;;;;;;74.72;11.98;;;;;;;;;;5074652;28;20240;-69
2023/01/26 11:37:37;;;;;;;72.55;11.75;;;;;;;;;;5074587;28;20209;-69
2023/01/26 11:40:15;;;;;;;73.47;12.18;;;;;;;;;;5073917;28;20215;-70
2023/01/26 11:42:48;;;;;;;71.85;12.45;;;;;;;;;;5074668;28;20253;-70
2023/01/26 11:45:20;;;;;;;78.00;14.88;;;;;;;;;;5074330;28;20233;-69
2023/01/26 11:47:52;;;;;;;72.45;12.70;;;;;;;;;;5074672;28;20218;-70
2023/01/26 11:50:23;;;;;;;77.03;13.77;;;;;;;;;;5073802;28;20554;-70
2023/01/26 11:52:57;;;;;;;76.03;15.93;;;;;;;;;;5074331;28;20225;-70
2023/01/26 11:55:27;;;;;;;73.65;12.13;;;;;;;;;;5074379;28;20214;-69
2023/01/26 11:58:04;;;;;;;72.60;12.45;;;;;;;;;;5074220;28;20208;-70
2023/01/26 12:00:39;;;;;;;71.07;12.85;;;;;;;;;;5073514;28;20688;-69
2023/01/26 12:03:07;;;;;;;72.45;12.57;;;;;;;;;;5074291;28;20225;-70
2023/01/26 12:05:38;;;;;;;76.80;13.45;;;;;;;;;;5074117;28;20234;-69
2023/01/26 12:08:07;;;;;;;75.47;12.93;;;;;;;;;;5074294;28;20596;-70
2023/01/26 12:10:38;;;;;;;79.85;14.85;;;;;;;;;;5073624;28;20209;-69
2023/01/26 12:13:08;;;;;;;78.43;14.05;;;;;;;;;;5074046;28;20324;-70
2023/01/26 12:15:38;;;;;;;75.80;12.85;;;;;;;;;;5073980;28;20667;-69
2023/01/26 12:18:09;;;;;;;78.40;13.90;;;;;;;;;;5073884;28;20224;-70
2023/01/26 12:20:39;;;;;;;80.63;16.13;;;;;;;;;;5073130;28;20267;-70
2023/01/26 12:23:11;;;;;;;77.63;14.05;;;;;;;;;;5073563;28;20230;-70
2023/01/26 12:25:39;;;;;;;77.78;14.27;;;;;;;;;;5073731;28;20230;-70
2023/01/26 12:28:12;;;;;;;78.82;14.13;;;;;;;;;;5073777;28;20557;-70
2023/01/26 12:30:46;;;;;;;81.55;14.75;;;;;;;;;;5073107;28;20211;-70
2023/01/26 12:33:14;;;;;;;78.45;14.95;;;;;;;;;;5074152;28;20286;-69
2023/01/26 12:35:47;;;;;;;81.57;15.02;;;;;;;;;;5073837;28;20218;-70
2023/01/26 12:38:17;;;;;;;78.25;15.13;;;;;;;;;;5073834;28;20217;-70
2023/01/26 12:40:49;;;;;;;77.03;14.10;;;;;;;;;;5072864;28;20209;-70
2023/01/26 12:43:20;;;;;;;75.68;14.18;;;;;;;;;;5073244;28;20228;-70
2023/01/26 12:45:50;;;;;;;77.22;14.55;;;;;;;;;;5073630;28;20573;-70
2023/01/26 12:48:18;;;;;;;81.05;16.63;;;;;;;;;;5073324;28;20297;-70
2023/01/26 12:50:47;;;;;;;82.47;14.65;;;;;;;;;;5072152;28;20219;-70
2023/01/26 12:53:17;;;;;;;76.78;14.50;;;;;;;;;;5073443;28;20229;-69
2023/01/26 12:55:46;;;;;;;75.43;14.30;;;;;;;;;;5073165;28;20212;-69
2023/01/26 12:58:16;;;;;;;80.88;14.57;;;;;;;;;;5073453;28;20263;-69
2023/01/26 13:00:51;;;;;;;75.72;13.25;;;;;;;;;;5072790;28;20408;-70
2023/01/26 13:03:21;;;;;;;74.30;12.50;;;;;;;;;;5073121;28;20230;-69
2023/01/26 13:05:56;;;;;;;77.57;13.82;;;;;;;;;;5072998;28;20225;-69
2023/01/26 13:08:40;;;;;;;76.88;13.80;;;;;;;;;;5072720;28;20212;-69
2023/01/26 13:11:08;;;;;;;75.68;14.23;;;;;;;;;;5073141;28;20210;-70
2023/01/26 13:13:35;;;;;;;73.28;13.48;;;;;;;;;;5072778;28;20730;-69
2023/01/26 13:16:21;;;;;;;74.70;12.98;;;;;;;;;;5072851;28;20288;-70
2023/01/26 13:18:50;;;;;;;73.68;12.95;;;;;;;;;;5072453;28;20649;-69
2023/01/26 13:21:27;;;;;;;73.30;13.35;;;;;;;;;;5072784;28;20212;-69
2023/01/26 13:23:54;;;;;;;74.93;14.75;;;;;;;;;;5072426;28;20807;-69
2023/01/26 13:26:51;;;;;;;75.35;13.93;;;;;;;;;;5072620;28;20227;-70
2023/01/26 13:29:31;;;;;;;76.95;14.10;;;;;;;;;;5071716;28;20204;-69
2023/01/26 13:31:59;;;;;;;78.28;15.05;;;;;;;;;;5072473;28;20201;-70
2023/01/26 13:34:29;;;;;;;74.45;15.13;;;;;;;;;;5072392;28;20224;-70
2023/01/26 13:36:59;;;;;;;74.25;14.85;;;;;;;;;;5071602;28;20679;-70
2023/01/26 13:39:30;;;;;;;74.05;13.60;;;;;;;;;;5071684;28;20224;-70
2023/01/26 13:41:58;;;;;;;78.35;13.10;;;;;;;;;;5072328;28;20207;-69
2023/01/26 13:44:30;;;;;;;72.60;12.48;;;;;;;;;;5072469;28;20230;-69
2023/01/26 13:47:00;;;;;;;72.80;10.85;;;;;;;;;;5072340;28;20252;-70
2023/01/26 13:49:37;;;;;;;70.45;11.88;;;;;;;;;;5071574;28;20580;-70
2023/01/26 13:52:04;;;;;;;75.13;13.52;;;;;;;;;;5072068;28;20232;-69
2023/01/26 13:54:31;;;;;;;75.88;12.50;;;;;;;;;;5072032;28;20235;-69
2023/01/26 13:57:02;;;;;;;73.85;12.60;;;;;;;;;;5072316;28;20202;-69
2023/01/26 13:59:29;;;;;;;71.28;12.30;;;;;;;;;;5071312;28;20672;-69
2023/01/26 14:01:57;;;;;;;74.07;12.93;;;;;;;;;;5072223;28;20215;-69
2023/01/26 14:04:25;;;;;;;73.70;12.73;;;;;;;;;;5071928;28;20732;-69
2023/01/26 14:06:56;;;;;;;69.32;12.20;;;;;;;;;;5071754;28;20230;-69
2023/01/26 14:09:23;;;;;;;72.95;12.13;;;;;;;;;;5071185;28;20673;-69
2023/01/26 14:11:56;;;;;;;73.63;11.90;;;;;;;;;;5071684;28;20203;-69
2023/01/26 14:14:25;;;;;;;73.50;12.75;;;;;;;;;;5071955;28;20228;-69
2023/01/26 14:16:52;;;;;;;72.47;13.38;;;;;;;;;;5071885;28;20199;-69
2023/01/26 14:19:21;;;;;;;76.22;13.25;;;;;;;;;;5070949;28;20679;-70
2023/01/26 14:21:49;;;;;;;73.78;13.15;;;;;;;;;;5071957;28;20208;-69
2023/01/26 14:24:17;;;;;;;70.90;12.45;;;;;;;;;;5071784;28;20238;-69
2023/01/26 14:26:45;;;;;;;72.80;12.35;;;;;;;;;;5071724;28;20238;-70
2023/01/26 14:29:13;;;;;;;72.93;13.45;;;;;;;;;;5071020;28;20238;-69
2023/01/26 14:31:40;;;;;;;73.00;11.90;;;;;;;;;;5071603;28;20206;-70
2023/01/26 14:34:10;;;;;;;69.57;11.10;;;;;;;;;;5071419;28;20226;-69
2023/01/26 14:36:38;;;;;;;68.43;10.50;;;;;;;;;;5072068;28;20202;-69
2023/01/26 14:39:15;;;;;;;68.03;10.65;;;;;;;;;;5070730;28;20236;-68
2023/01/26 14:41:44;;;;;;;72.72;12.13;;;;;;;;;;5071685;28;20211;-70
2023/01/26 14:44:12;;;;;;;70.78;11.55;;;;;;;;;;5071355;28;20227;-69
2023/01/26 14:46:45;;;;;;;71.45;12.60;;;;;;;;;;5072527;28;20226;-70
2023/01/26 14:49:14;;;;;;;73.18;11.52;;;;;;;;;;5075036;28;20209;-69
2023/01/26 14:51:44;;;;;;;72.45;12.43;;;;;;;;;;5075830;28;20260;-68
2023/01/26 14:54:16;;;;;;;69.70;11.15;;;;;;;;;;5075726;28;20582;-69
2023/01/26 14:56:47;;;;;;;72.40;12.63;;;;;;;;;;5075674;28;20205;-69
2023/01/26 14:59:19;;;;;;;72.05;12.70;;;;;;;;;;5074884;28;20203;-69
2023/01/26 15:01:46;;;;;;;72.05;12.23;;;;;;;;;;5075369;28;20208;-70
2023/01/26 15:04:20;;;;;;;73.90;12.82;;;;;;;;;;5075520;28;20305;-69
2023/01/26 15:06:47;;;;;;;72.82;11.98;;;;;;;;;;5075126;28;20224;-69
2023/01/26 15:09:21;;;;;;;71.07;10.95;;;;;;;;;;5074359;28;20613;-69
2023/01/26 15:14:47;;;;;;;68.88;10.90;;;;;;;;;;5075129;28;20223;-70